M I D A S
Marine Information and Data Acquisition System
Tripno 1958 of the Zeeleeuw from 2010-09-09 08:09:41 to 2010-09-09 16:25:01
Back to CruiseResearch ActivitiesStationsMapUnderway DataData graphs

EquipmentUnitsComment
TimeDGPSUTC
LatitudeDGPSDM.mWGS84
LongitudeDGPSDM.mWGS84
HeadingGyrodeg 
SOGDGPSknotsSpeed over ground
COGDGPSdegCourse over ground
DepthEcho soundermeters200 kHz
Missing or incorrect values are displayed as -999
Navigation data collected by the RV Zeeleeuw from 2010-09-09 06:27:41 to 2010-09-09 16:33:28
Time Latitude Longitude Heading SOG COG Depth
2010-09-09 06:28:45 51°13.666 2°55.945 109.7 2 293 4.8
2010-09-09 06:29:45 51°13.687 2°55.861 100.2 4.2 284 -999
2010-09-09 06:30:45 51°13.69 2°55.761 75.7 3.1 264 11.9
2010-09-09 06:31:43 51°13.698 2°55.745 28.8 1.4 6 11.6
2010-09-09 06:32:41 51°13.745 2°55.719 330.7 5 328 10
2010-09-09 06:33:42 51°13.846 2°55.614 333.1 8.4 333 9.3
2010-09-09 06:34:42 51°13.988 2°55.521 338.8 9.7 339 9.3
2010-09-09 06:35:42 51°14.14 2°55.417 335 10 333 9.3
2010-09-09 06:36:42 51°14.283 2°55.275 328.7 10.2 329 9.1
2010-09-09 06:37:42 51°14.432 2°55.137 330.2 10.6 329 8.8
2010-09-09 06:38:42 51°14.594 2°54.965 329.6 12.6 324 9.7
2010-09-09 06:39:42 51°14.758 2°54.738 322.9 13.1 316 9.7
2010-09-09 06:40:42 51°14.922 2°54.519 331.7 12.8 325 8.8
2010-09-09 06:41:42 51°15.097 2°54.336 330.9 12.7 324 8.3
2010-09-09 06:42:41 51°15.264 2°54.131 331 12.9 324 8.9
2010-09-09 06:43:42 51°15.441 2°53.925 330 13 323 9.3
2010-09-09 06:44:41 51°15.617 2°53.736 333.6 12.9 326 9.8
2010-09-09 06:45:41 51°15.796 2°53.546 335.1 12.9 328 9.9
2010-09-09 06:46:42 51°15.988 2°53.384 342.3 12.7 336 9.9
2010-09-09 06:47:42 51°16.179 2°53.245 343.9 12.6 335 10.2
2010-09-09 06:48:41 51°16.366 2°53.108 343.9 12.6 335 10.3
2010-09-09 06:49:42 51°16.56 2°52.964 343.8 12.6 336 10
2010-09-09 06:50:42 51°16.752 2°52.835 344 12.4 338 8.8
2010-09-09 06:51:41 51°16.938 2°52.732 349 12 343 8.1
2010-09-09 06:52:42 51°17.135 2°52.632 348.5 12.1 342 8
2010-09-09 06:53:41 51°17.327 2°52.561 2.3 11.9 359 8.6
2010-09-09 06:54:42 51°17.506 2°52.674 36.2 11.5 34 8.6
2010-09-09 06:55:41 51°17.636 2°52.893 48.4 11.6 49 8.4
2010-09-09 06:56:42 51°17.772 2°53.118 43.8 11.5 43 8.6
2010-09-09 06:57:42 51°17.924 2°53.304 38.4 11.5 38 8.8
2010-09-09 06:58:41 51°18.076 2°53.481 38.6 11.6 36 9
2010-09-09 06:59:42 51°18.235 2°53.662 37.7 11.5 36 9.2
2010-09-09 07:00:42 51°18.394 2°53.832 34.7 11.4 33 9.4
2010-09-09 07:01:42 51°18.558 2°53.989 34.9 11.4 32 9.7
2010-09-09 07:02:42 51°18.724 2°54.144 34 11.5 30 10.1
2010-09-09 07:03:42 51°18.886 2°54.308 37.3 11.6 37 10.2
2010-09-09 07:04:42 51°19.038 2°54.494 40.4 11.5 39 10.2
2010-09-09 07:05:42 51°19.19 2°54.681 40.5 11.5 36 10.3
2010-09-09 07:06:42 51°19.343 2°54.868 40.6 11.6 36 10.5
2010-09-09 07:07:42 51°19.496 2°55.054 40.2 11.6 38 10.8
2010-09-09 07:08:42 51°19.648 2°55.238 39.9 11.5 37 10.8
2010-09-09 07:09:42 51°19.8 2°55.421 40.4 11.5 36 10.8
2010-09-09 07:10:42 51°19.954 2°55.604 40.2 11.5 36 11.1
2010-09-09 07:11:41 51°20.104 2°55.782 40 11.4 34 11.1
2010-09-09 07:12:42 51°20.257 2°55.967 40.3 11.3 36 11.5
2010-09-09 07:13:42 51°20.41 2°56.146 40.2 11.4 37 11.5
2010-09-09 07:14:42 51°20.562 2°56.324 39.9 11.3 34 11.5
2010-09-09 07:15:42 51°20.714 2°56.505 39.8 11.5 35 11.8
2010-09-09 07:16:42 51°20.868 2°56.683 40.4 11.5 38 11.9
2010-09-09 07:17:42 51°21.022 2°56.861 40.2 11.4 36 12.2
2010-09-09 07:18:42 51°21.176 2°57.039 40.3 11.4 36 12.4
2010-09-09 07:19:42 51°21.331 2°57.216 39.9 11.4 38 12.4
2010-09-09 07:20:42 51°21.484 2°57.393 40.4 11.5 36 12.6
2010-09-09 07:21:42 51°21.636 2°57.571 40 11.3 36 12.8
2010-09-09 07:22:41 51°21.784 2°57.747 39.7 11.4 37 13.3
2010-09-09 07:23:42 51°21.938 2°57.929 39.5 11.4 36 13.6
2010-09-09 07:24:41 51°22.086 2°58.108 40.5 11.4 36 14.1
2010-09-09 07:25:41 51°22.236 2°58.292 39.5 11.4 35 14.5
2010-09-09 07:26:42 51°22.389 2°58.481 40.7 11.5 37 14.6
2010-09-09 07:27:41 51°22.538 2°58.664 39.8 11.4 37 15
2010-09-09 07:28:42 51°22.691 2°58.854 40.6 11.5 38 15.5
2010-09-09 07:29:41 51°22.838 2°59.039 39.8 11.4 38 15.9
2010-09-09 07:30:42 51°22.991 2°59.229 40.5 11.4 36 16.1
2010-09-09 07:31:42 51°23.142 2°59.407 40.5 11.2 36 16.8
2010-09-09 07:32:42 51°23.292 2°59.584 40 11.2 36 16.9
2010-09-09 07:33:42 51°23.441 2°59.763 40.2 11.3 37 16.9
2010-09-09 07:34:41 51°23.594 2°59.918 25.5 10.9 12 17.3
2010-09-09 07:35:41 51°23.789 2°59.915 8.1 11.9 -999 16.8
2010-09-09 07:36:41 51°23.983 2°59.951 17.2 11.6 13 15.8
2010-09-09 07:37:42 51°24.169 3°0.046 26.2 11.5 23 15.3
2010-09-09 07:38:41 51°24.342 3°0.17 28.4 11.6 27 14.8
2010-09-09 07:39:42 51°24.52 3°0.3 29.3 11.5 27 14.4
2010-09-09 07:40:41 51°24.69 3°0.441 29.8 11.9 27 17.9
2010-09-09 07:41:42 51°24.87 3°0.591 30.3 12 29 17
2010-09-09 07:42:42 51°25.045 3°0.74 29.1 11.9 28 14.1
2010-09-09 07:43:42 51°25.218 3°0.89 29.9 11.8 29 13.2
2010-09-09 07:44:42 51°25.392 3°1.038 29.1 11.9 27 12.7
2010-09-09 07:45:42 51°25.566 3°1.183 28.6 11.7 24 12.2
2010-09-09 07:46:42 51°25.732 3°1.341 32.3 11.6 32 11.1
2010-09-09 07:47:41 51°25.888 3°1.51 35.7 11.4 34 10.2
2010-09-09 07:48:41 51°26.043 3°1.682 35.7 11.3 34 9.8
2010-09-09 07:49:41 51°26.196 3°1.848 34.9 10.9 34 9.5
2010-09-09 07:50:42 51°26.351 3°2.019 35.8 11.1 36 10.1
2010-09-09 07:51:41 51°26.501 3°2.18 35.4 11 33 11
2010-09-09 07:52:41 51°26.65 3°2.353 38.8 11 38 12.3
2010-09-09 07:53:42 51°26.795 3°2.545 39.5 11.2 38 12.6
2010-09-09 07:54:41 51°26.931 3°2.736 43.2 11.2 45 12.5
2010-09-09 07:55:42 51°27.068 3°2.944 43.1 11.3 43 13.1
2010-09-09 07:56:41 51°27.196 3°3.152 47.1 11.1 45 12.4
2010-09-09 07:57:42 51°27.318 3°3.385 47.9 11.3 49 14.4
2010-09-09 07:58:41 51°27.44 3°3.613 47.8 11.5 49 14.9
2010-09-09 07:59:41 51°27.566 3°3.844 47.9 11.5 48 15.1
2010-09-09 08:00:41 51°27.692 3°4.071 49.5 11.5 54 15.3
2010-09-09 08:01:42 51°27.794 3°4.334 57.3 11.4 60 15
2010-09-09 08:02:42 51°27.909 3°4.576 50.9 11.4 52 15
2010-09-09 08:03:42 51°28.029 3°4.811 49.6 11.4 49 14.3
2010-09-09 08:04:41 51°28.146 3°5.042 50.1 11.3 52 14.4
2010-09-09 08:05:42 51°28.267 3°5.28 50.2 11.3 51 14.3
2010-09-09 08:06:42 51°28.387 3°5.517 50.4 11.5 51 15.2
2010-09-09 08:07:41 51°28.488 3°5.739 58 8.1 63 15.5
2010-09-09 08:08:42 51°28.518 3°5.893 67.6 5 76 15.3
2010-09-09 08:09:41 51°28.546 3°6.009 54.9 4.5 60 15.8
2010-09-09 08:10:41 51°28.575 3°6.108 73 3.5 91 15.8
2010-09-09 08:11:42 51°28.557 3°6.139 118.5 1.5 224 15.9
2010-09-09 08:12:42 51°28.54 3°6.116 130.7 1.3 217 -999
2010-09-09 08:13:41 51°28.523 3°6.096 131.8 1.4 214 15.9
2010-09-09 08:14:41 51°28.505 3°6.08 134.4 1.3 208 15.8
2010-09-09 08:15:42 51°28.485 3°6.064 139.8 1.4 205 15.9
2010-09-09 08:16:41 51°28.464 3°6.05 143.8 1.4 201 15.8
2010-09-09 08:17:42 51°28.44 3°6.035 149.6 1.5 200 15.5
2010-09-09 08:18:42 51°28.415 3°6.022 157.6 1.6 198 15.7
2010-09-09 08:19:42 51°28.388 3°6.007 162.7 1.7 198 15.7
2010-09-09 08:20:42 51°28.344 3°6.028 111.5 3.4 133 15.7
2010-09-09 08:21:42 51°28.367 3°6.125 36.7 6.4 32 15.4
2010-09-09 08:22:42 51°28.497 3°6.129 1.3 8.8 354 15.8
2010-09-09 08:23:42 51°28.582 3°6.153 34.9 2.5 36 16
2010-09-09 08:24:42 51°28.585 3°6.183 70 1.1 124 16
2010-09-09 08:25:42 51°28.57 3°6.201 66.8 0.9 151 16.2
2010-09-09 08:26:42 51°28.56 3°6.207 45.4 0.6 174 16.1
2010-09-09 08:27:41 51°28.551 3°6.203 32.6 0.7 209 15.9
2010-09-09 08:28:41 51°28.552 3°6.21 50.8 1.2 82 16
2010-09-09 08:29:42 51°28.513 3°6.301 126.6 7.1 146 16.1
2010-09-09 08:30:41 51°28.376 3°6.288 205.3 9.9 212 15.7
2010-09-09 08:31:42 51°28.226 3°6.075 225.4 12.8 225 15.1
2010-09-09 08:32:41 51°28.104 3°5.884 249.7 7.4 246 15.3
2010-09-09 08:33:42 51°28.115 3°5.753 335.4 3.6 316 14.6
2010-09-09 08:34:41 51°28.167 3°5.736 15.5 3 5 15.4
2010-09-09 08:35:42 51°28.216 3°5.752 21 2.9 12 15.3
2010-09-09 08:36:41 51°28.264 3°5.77 26.9 3 22 15
2010-09-09 08:37:42 51°28.303 3°5.818 41 2.8 43 14.9
2010-09-09 08:38:42 51°28.338 3°5.852 25.4 2.4 17 15
2010-09-09 08:39:42 51°28.373 3°5.876 30.5 2.3 26 14.9
2010-09-09 08:40:42 51°28.407 3°5.901 30.2 2.3 26 15.2
2010-09-09 08:41:41 51°28.437 3°5.944 44.4 2.6 49 15.7
2010-09-09 08:42:42 51°28.472 3°5.986 30.1 2.6 26 15.9
2010-09-09 08:43:41 51°28.512 3°6.018 37.1 2.8 38 16
2010-09-09 08:44:42 51°28.542 3°6.074 45.8 2.7 53 16
2010-09-09 08:45:44 51°28.575 3°6.127 36.6 2.6 35 16.5
2010-09-09 08:46:44 51°28.612 3°6.17 38.4 2.8 42 16.4
2010-09-09 08:47:44 51°28.644 3°6.222 42.7 2.8 49 16.2
2010-09-09 08:48:44 51°28.678 3°6.274 36.4 2.7 36 16.5
2010-09-09 08:49:44 51°28.719 3°6.307 26.2 2.9 21 16.4
2010-09-09 08:50:44 51°28.759 3°6.343 41.4 2.7 50 15.8
2010-09-09 08:51:44 51°28.776 3°6.413 62.3 3 82 16.9
2010-09-09 08:52:44 51°28.772 3°6.499 81 3.5 107 16.3
2010-09-09 08:53:44 51°28.733 3°6.581 114.3 4.4 141 16.4
2010-09-09 08:54:44 51°28.664 3°6.63 144.2 4.5 167 16.1
2010-09-09 08:55:44 51°28.6 3°6.641 157.8 3.4 179 15.9
2010-09-09 08:56:44 51°28.547 3°6.635 167 3 188 15.8
2010-09-09 08:57:44 51°28.503 3°6.622 174.2 2.5 194 15.5
2010-09-09 08:58:44 51°28.447 3°6.631 130 3.9 152 15.3
2010-09-09 08:59:44 51°28.44 3°6.702 38.5 2.9 31 15.6
2010-09-09 09:00:44 51°28.494 3°6.633 321.2 7 309 15.6
2010-09-09 09:01:44 51°28.603 3°6.445 323.7 11.1 316 16.1
2010-09-09 09:02:44 51°28.768 3°6.266 339.8 12.2 332 16.4
2010-09-09 09:03:44 51°28.961 3°6.212 4.1 11.7 1 17
2010-09-09 09:04:44 51°29.156 3°6.232 9.1 11.8 3 17.9
2010-09-09 09:05:44 51°29.351 3°6.249 7.2 11.8 3 19.6
2010-09-09 09:06:44 51°29.524 3°6.289 19.1 9.5 18 20.7
2010-09-09 09:07:44 51°29.649 3°6.425 43.7 8.3 45 21.2
2010-09-09 09:08:44 51°29.69 3°6.539 62.7 3.1 83 21.1
2010-09-09 09:09:44 51°29.67 3°6.571 114 1.8 184 21.1
2010-09-09 09:10:44 51°29.647 3°6.556 133.7 1.4 204 20.9
2010-09-09 09:11:44 51°29.624 3°6.541 147.4 1.5 200 20.8
2010-09-09 09:12:44 51°29.601 3°6.525 158.9 1.6 201 20.6
2010-09-09 09:13:44 51°29.577 3°6.511 168.3 1.5 201 20.4
2010-09-09 09:14:44 51°29.554 3°6.498 170.5 1.5 200 20.6
2010-09-09 09:15:44 51°29.521 3°6.484 178.3 3.5 192 20.1
2010-09-09 09:16:44 51°29.461 3°6.402 251.5 5.1 243 20.1
2010-09-09 09:17:44 51°29.466 3°6.298 329.8 3.1 309 20.5
2010-09-09 09:18:44 51°29.499 3°6.298 39.6 2.2 42 20.6
2010-09-09 09:19:44 51°29.548 3°6.342 23.4 4.1 21 20.8
2010-09-09 09:20:44 51°29.589 3°6.373 27.3 1.6 21 21.3
2010-09-09 09:21:44 51°29.599 3°6.375 26.2 0.2 347 21.1
2010-09-09 09:22:44 51°29.599 3°6.369 14 0.5 249 21.2
2010-09-09 09:23:44 51°29.592 3°6.356 7 0.8 219 21.1
2010-09-09 09:24:44 51°29.595 3°6.348 24.9 0.9 26 21.1
2010-09-09 09:25:44 51°29.625 3°6.392 34.9 3.3 33 21.3
2010-09-09 09:26:44 51°29.664 3°6.448 42.9 3 50 21.7
2010-09-09 09:27:44 51°29.697 3°6.501 39.5 2.8 46 21.7
2010-09-09 09:28:44 51°29.728 3°6.556 42.2 2.8 50 21.6
2010-09-09 09:29:44 51°29.761 3°6.61 37.8 2.8 41 21.5
2010-09-09 09:30:44 51°29.798 3°6.659 37 3.1 41 21.5
2010-09-09 09:31:44 51°29.836 3°6.718 40.5 3.2 45 21.8
2010-09-09 09:32:44 51°29.874 3°6.779 40.7 3.3 44 21.7
2010-09-09 09:33:44 51°29.912 3°6.84 40.6 3.2 46 21.7
2010-09-09 09:34:44 51°29.95 3°6.9 39.8 3.1 45 21.6
2010-09-09 09:35:44 51°29.985 3°6.958 40.2 3 47 22
2010-09-09 09:36:44 51°30.019 3°7.015 40.1 3 45 21.7
2010-09-09 09:37:44 51°30.051 3°7.076 46.5 2.9 54 21.6
2010-09-09 09:38:44 51°30.078 3°7.142 50 3 61 21.8
2010-09-09 09:39:44 51°30.093 3°7.219 63.6 3.2 84 22
2010-09-09 09:40:44 51°30.089 3°7.301 80.7 3.1 107 21.6
2010-09-09 09:41:44 51°30.063 3°7.367 102.6 2.8 137 21.1
2010-09-09 09:42:44 51°30.025 3°7.404 122.4 2.6 159 20.6
2010-09-09 09:43:44 51°29.985 3°7.419 137.3 2.5 174 20.4
2010-09-09 09:44:44 51°29.941 3°7.447 107.3 3.2 137 20.2
2010-09-09 09:45:44 51°29.948 3°7.5 25.6 2.4 16 20
2010-09-09 09:46:44 51°29.984 3°7.429 302.6 5.3 286 20.4
2010-09-09 09:47:44 51°30.014 3°7.194 286 11.7 276 21.2
2010-09-09 09:48:44 51°30.007 3°6.838 271.1 14.1 266 22.1
2010-09-09 09:49:44 51°30.039 3°6.479 294.3 13.5 288 23.3
2010-09-09 09:50:44 51°30.114 3°6.138 297 13.5 290 24.1
2010-09-09 09:51:44 51°30.194 3°5.803 297.2 13.4 290 23.7
2010-09-09 09:52:44 51°30.273 3°5.466 298 13.5 291 23.5
2010-09-09 09:53:44 51°30.344 3°5.163 299.2 9.1 291 23.3
2010-09-09 09:54:44 51°30.384 3°5.049 340.1 1.8 308 23.3
2010-09-09 09:55:44 51°30.38 3°5.031 24.6 0.7 210 23.2
2010-09-09 09:56:44 51°30.37 3°5.025 22.8 0.7 198 23.3
2010-09-09 09:57:44 51°30.358 3°5.015 15.3 0.9 212 23.3
2010-09-09 09:58:44 51°30.343 3°5.001 3.4 1.1 207 23.4
2010-09-09 09:59:44 51°30.327 3°4.987 352.8 1.1 205 23.1
2010-09-09 10:00:44 51°30.309 3°4.975 348.6 1.2 204 23.2
2010-09-09 10:01:45 51°30.289 3°4.963 348.8 1.2 198 22.8
2010-09-09 10:02:44 51°30.271 3°4.952 349.2 1.2 203 22.2
2010-09-09 10:03:44 51°30.253 3°4.942 350.3 1.2 203 22.7
2010-09-09 10:04:44 51°30.249 3°4.928 349.9 1.6 324 23
2010-09-09 10:05:44 51°30.292 3°4.885 346.8 3.5 332 22.9
2010-09-09 10:06:44 51°30.346 3°4.851 356.1 3.2 341 21.4
2010-09-09 10:07:44 51°30.393 3°4.832 4 2.8 353 23.1
2010-09-09 10:08:44 51°30.438 3°4.833 14.1 2.6 4 23.9
2010-09-09 10:09:44 51°30.479 3°4.85 26.6 2.5 25 23.7
2010-09-09 10:10:44 51°30.514 3°4.885 33.6 2.4 37 24.2
2010-09-09 10:11:44 51°30.548 3°4.922 31.9 2.5 32 24.2
2010-09-09 10:12:44 51°30.584 3°4.959 31.3 2.6 30 24.3
2010-09-09 10:13:44 51°30.621 3°4.991 29.1 2.6 26 24.3
2010-09-09 10:14:44 51°30.657 3°5.025 29.8 2.6 30 24.6
2010-09-09 10:15:44 51°30.695 3°5.058 29.1 2.7 27 24.4
2010-09-09 10:16:44 51°30.732 3°5.09 29.6 2.6 30 24.7
2010-09-09 10:17:44 51°30.77 3°5.123 29.2 2.6 27 24.8
2010-09-09 10:18:44 51°30.808 3°5.156 28.8 2.6 27 25
2010-09-09 10:19:44 51°30.844 3°5.191 30.3 2.6 30 24.7
2010-09-09 10:20:44 51°30.882 3°5.225 29.1 2.6 28 24.8
2010-09-09 10:21:44 51°30.921 3°5.259 28.8 2.6 27 24.7
2010-09-09 10:22:44 51°30.959 3°5.292 29.1 2.6 32 24.8
2010-09-09 10:23:44 51°30.995 3°5.328 32.3 2.5 37 26
2010-09-09 10:24:44 51°31.021 3°5.38 51 2.6 68 26.1
2010-09-09 10:25:44 51°31.029 3°5.454 75.2 3.1 93 25.8
2010-09-09 10:26:44 51°31.006 3°5.535 103.4 3.6 126 25.4
2010-09-09 10:27:44 51°30.96 3°5.594 130.3 3.4 151 24.8
2010-09-09 10:28:44 51°30.914 3°5.619 145.1 2.7 169 24.4
2010-09-09 10:29:44 51°30.872 3°5.627 155.4 2.3 176 23.7
2010-09-09 10:30:44 51°30.835 3°5.628 166.9 2.3 181 22.9
2010-09-09 10:31:44 51°30.786 3°5.622 187 3.5 193 22.3
2010-09-09 10:32:44 51°30.73 3°5.573 232.6 4.1 223 24.1
2010-09-09 10:33:44 51°30.711 3°5.48 295.5 3.6 278 24
2010-09-09 10:34:44 51°30.755 3°5.427 1.3 3.9 353 24.1
2010-09-09 10:35:44 51°30.86 3°5.401 354.4 8 349 24.1
2010-09-09 10:36:44 51°30.998 3°5.346 352.5 8.8 347 25.8
2010-09-09 10:37:44 51°31.143 3°5.313 357.9 8.9 353 26.1
2010-09-09 10:38:44 51°31.29 3°5.288 357.8 8.8 355 28.6
2010-09-09 10:39:44 51°31.439 3°5.27 2 8.9 359 29.1
2010-09-09 10:40:44 51°31.539 3°5.263 355.7 4 348 29.4
2010-09-09 10:41:44 51°31.583 3°5.233 340.2 2.1 327 29.7
2010-09-09 10:42:44 51°31.602 3°5.206 336.7 1.2 314 29.5
2010-09-09 10:43:44 51°31.609 3°5.189 333.5 0.5 274 29.5
2010-09-09 10:44:44 51°31.605 3°5.184 330.3 0.5 182 29.4
2010-09-09 10:45:44 51°31.595 3°5.185 338.3 0.5 163 29.6
2010-09-09 10:46:44 51°31.584 3°5.19 354.5 0.7 162 29.5
2010-09-09 10:47:44 51°31.573 3°5.195 1.8 0.7 167 29.6
2010-09-09 10:48:44 51°31.56 3°5.2 5 0.8 172 29.7
2010-09-09 10:49:44 51°31.547 3°5.205 7.3 0.8 161 29.6
2010-09-09 10:50:44 51°31.534 3°5.213 7.8 0.9 159 29.6
2010-09-09 10:51:44 51°31.52 3°5.22 7.2 0.8 164 29.5
2010-09-09 10:52:44 51°31.506 3°5.227 4.6 0.8 166 29.5
2010-09-09 10:53:44 51°31.493 3°5.234 2.6 0.8 162 29.6
2010-09-09 10:54:44 51°31.481 3°5.241 0.9 0.7 159 29.8
2010-09-09 10:55:44 51°31.471 3°5.249 359.4 0.7 155 29.8
2010-09-09 10:56:44 51°31.462 3°5.257 357.4 0.6 153 29.4
2010-09-09 10:57:44 51°31.452 3°5.267 356 0.7 150 29.6
2010-09-09 10:58:44 51°31.441 3°5.277 357.6 0.8 143 29.5
2010-09-09 10:59:44 51°31.43 3°5.289 359.9 0.8 143 29.6
2010-09-09 11:00:44 51°31.419 3°5.3 358.6 0.7 148 29.6
2010-09-09 11:01:44 51°31.408 3°5.313 358.4 0.8 146 29.6
2010-09-09 11:02:44 51°31.397 3°5.325 359.7 0.8 145 29.5
2010-09-09 11:03:44 51°31.386 3°5.337 1.1 0.8 142 29.5
2010-09-09 11:04:44 51°31.376 3°5.349 -999 0.7 140 30
2010-09-09 11:05:44 51°31.366 3°5.362 357.1 0.8 140 29.9
2010-09-09 11:06:44 51°31.356 3°5.377 355 0.8 136 29.3
2010-09-09 11:07:44 51°31.346 3°5.392 355.9 0.8 138 29.2
2010-09-09 11:08:44 51°31.335 3°5.407 357 0.9 141 29
2010-09-09 11:09:44 51°31.325 3°5.425 359.8 0.9 131 28.9
2010-09-09 11:10:44 51°31.315 3°5.442 1.8 0.8 131 28.8
2010-09-09 11:11:45 51°31.306 3°5.46 0.2 0.9 126 28.6
2010-09-09 11:12:44 51°31.298 3°5.477 356.7 0.8 131 28.5
2010-09-09 11:13:44 51°31.29 3°5.495 353.4 0.8 133 28.5
2010-09-09 11:14:44 51°31.283 3°5.514 350.8 0.8 118 28.4
2010-09-09 11:15:44 51°31.276 3°5.532 346.4 0.9 115 28.2
2010-09-09 11:16:44 51°31.271 3°5.552 345.7 0.8 116 27.8
2010-09-09 11:17:44 51°31.265 3°5.573 345.2 0.9 111 27.3
2010-09-09 11:18:44 51°31.29 3°5.574 336.5 4.1 339 27.8
2010-09-09 11:19:44 51°31.391 3°5.484 328.8 9.4 327 29.3
2010-09-09 11:20:44 51°31.49 3°5.258 297.1 11 294 30.3
2010-09-09 11:21:44 51°31.582 3°5.002 304.9 11.1 305 30
2010-09-09 11:22:44 51°31.662 3°4.835 307.7 4.8 311 30.2
2010-09-09 11:23:44 51°31.696 3°4.799 334.7 1.2 359 30
2010-09-09 11:24:44 51°31.707 3°4.809 338.3 0.9 46 30.3
2010-09-09 11:25:44 51°31.716 3°4.826 333.6 0.7 53 30.2
2010-09-09 11:26:44 51°31.722 3°4.845 330.9 0.8 70 30.3
2010-09-09 11:27:44 51°31.726 3°4.866 328.4 0.8 75 30.2
2010-09-09 11:28:44 51°31.729 3°4.89 327.3 1.1 80 29.8
2010-09-09 11:29:44 51°31.732 3°4.918 330.4 1.1 84 29.8
2010-09-09 11:30:44 51°31.733 3°4.95 336.1 1.2 84 30.1
2010-09-09 11:31:44 51°31.735 3°4.982 340 1.3 83 30
2010-09-09 11:32:44 51°31.737 3°5.016 343.4 1.3 86 30
2010-09-09 11:33:44 51°31.739 3°5.051 346.5 1.4 82 29.9
2010-09-09 11:34:44 51°31.742 3°5.088 350.2 1.5 85 30
2010-09-09 11:35:44 51°31.744 3°5.124 353 1.4 89 -999
2010-09-09 11:36:44 51°31.745 3°5.163 355.2 1.6 86 29.9
2010-09-09 11:37:44 51°31.748 3°5.202 355.6 1.5 84 30
2010-09-09 11:38:45 51°31.751 3°5.24 353.3 1.4 82 -999
2010-09-09 11:39:45 51°31.754 3°5.279 352.3 1.6 82 29.9
2010-09-09 11:40:44 51°31.757 3°5.318 352.2 1.5 84 30.1
2010-09-09 11:41:45 51°31.759 3°5.358 352.5 1.5 83 30
2010-09-09 11:42:44 51°31.788 3°5.387 345.9 3.4 8 30.1
2010-09-09 11:43:44 51°31.848 3°5.453 51 5.2 61 30.3
2010-09-09 11:44:44 51°31.838 3°5.583 132.2 4.9 126 30.4
2010-09-09 11:45:44 51°31.775 3°5.618 209.5 3.5 198 30.5
2010-09-09 11:46:44 51°31.759 3°5.546 275.6 3.6 277 30.2
2010-09-09 11:47:44 51°31.754 3°5.446 257 3.1 254 30.2
2010-09-09 11:48:44 51°31.738 3°5.393 249.8 1.6 237 30.4
2010-09-09 11:49:44 51°31.728 3°5.367 254.7 0.8 249 30.3
2010-09-09 11:50:44 51°31.725 3°5.352 266.2 0.6 282 30.1
2010-09-09 11:51:44 51°31.731 3°5.34 280.5 0.6 332 30.6
2010-09-09 11:52:44 51°31.746 3°5.34 290.2 1 11 30.3
2010-09-09 11:53:44 51°31.761 3°5.349 286.8 1 27 30.2
2010-09-09 11:54:44 51°31.776 3°5.361 284 1 32 30.5
2010-09-09 11:55:44 51°31.789 3°5.366 275 0.7 343 30.6
2010-09-09 11:56:44 51°31.796 3°5.343 261.4 1.4 272 30.3
2010-09-09 11:57:44 51°31.792 3°5.297 258.7 2 270 30.2
2010-09-09 11:58:44 51°31.812 3°5.247 295 2.7 323 30.5
2010-09-09 11:59:44 51°31.853 3°5.218 310.2 2.7 345 30.4
2010-09-09 12:00:44 51°31.899 3°5.209 319.8 2.8 1 30.7
2010-09-09 12:01:44 51°31.949 3°5.216 333.5 3.3 13 30.7
2010-09-09 12:02:44 51°32.002 3°5.252 9.5 3.6 34 30.6
2010-09-09 12:03:44 51°32.044 3°5.332 54.6 4 59 30.9
2010-09-09 12:04:44 51°32.063 3°5.432 95 3.9 81 30.9
2010-09-09 12:05:44 51°32.067 3°5.541 104.6 4.4 87 30.8
2010-09-09 12:06:44 51°32.066 3°5.656 110.3 4.3 93 31.6
2010-09-09 12:07:44 51°32.06 3°5.77 115.1 4.2 97 31.4
2010-09-09 12:08:44 51°32.05 3°5.883 122.5 4.2 101 31.5
2010-09-09 12:09:44 51°32.034 3°5.992 129.4 4.3 104 31.5
2010-09-09 12:10:44 51°32.014 3°6.1 137.2 4.1 113 31.2
2010-09-09 12:11:44 51°31.963 3°6.137 217.3 4 212 31.5
2010-09-09 12:12:44 51°31.918 3°5.986 246.5 8.6 246 31
2010-09-09 12:13:44 51°31.856 3°5.756 246.5 10.2 244 30.9
2010-09-09 12:14:44 51°31.787 3°5.488 246.9 11 246 30.6
2010-09-09 12:15:44 51°31.708 3°5.222 242.6 11.1 244 30.8
2010-09-09 12:16:43 51°31.629 3°4.963 243.4 11 244 30.9
2010-09-09 12:17:43 51°31.548 3°4.699 243 11.1 245 30.8
2010-09-09 12:18:44 51°31.498 3°4.463 269.5 6.6 287 30.5
2010-09-09 12:19:43 51°31.595 3°4.436 15.4 7.4 31 30.8
2010-09-09 12:20:43 51°31.645 3°4.587 95.5 5.3 82 31.1
2010-09-09 12:21:43 51°31.644 3°4.706 123.1 4 94 31.2
2010-09-09 12:22:43 51°31.641 3°4.807 124.6 3.6 93 31.3
2010-09-09 12:23:44 51°31.64 3°4.906 123.4 3.7 89 31
2010-09-09 12:24:43 51°31.641 3°5.002 122.6 3.6 90 31.2
2010-09-09 12:25:44 51°31.641 3°5.099 126.8 3.5 90 31
2010-09-09 12:26:43 51°31.639 3°5.192 128.9 3.5 92 31.1
2010-09-09 12:27:43 51°31.638 3°5.286 126.6 3.7 91 31.6
2010-09-09 12:28:43 51°31.637 3°5.386 125.2 3.8 91 31.5
2010-09-09 12:29:44 51°31.635 3°5.491 124.9 3.9 93 31.3
2010-09-09 12:30:43 51°31.631 3°5.594 125.6 4 94 31.7
2010-09-09 12:31:43 51°31.619 3°5.699 146.3 4.1 122 31.3
2010-09-09 12:32:43 51°31.571 3°5.715 227.8 3.2 228 30.9
2010-09-09 12:33:43 51°31.571 3°5.586 264.3 7.5 271 31.5
2010-09-09 12:34:43 51°31.551 3°5.337 250.2 10.3 251 31.2
2010-09-09 12:35:43 51°31.477 3°5.088 241.2 10.3 245 31.2
2010-09-09 12:36:44 51°31.414 3°4.824 249.1 10.6 252 31.2
2010-09-09 12:37:44 51°31.368 3°4.555 252.7 10.5 256 30.8
2010-09-09 12:38:44 51°31.353 3°4.321 275.3 6 297 30.5
2010-09-09 12:39:43 51°31.444 3°4.301 9.1 7.3 27 30.8
2010-09-09 12:40:43 51°31.502 3°4.456 99.2 6 84 30.9
2010-09-09 12:41:43 51°31.496 3°4.578 138.7 3.8 98 30.9
2010-09-09 12:42:44 51°31.488 3°4.674 141.6 3.4 97 31.1
2010-09-09 12:43:43 51°31.483 3°4.764 141.2 3.4 95 31.5
2010-09-09 12:44:43 51°31.48 3°4.852 141.7 3.3 93 31.3
2010-09-09 12:45:43 51°31.476 3°4.941 139.4 3.3 95 31.4
2010-09-09 12:46:43 51°31.472 3°5.034 137.7 3.6 94 31
2010-09-09 12:47:43 51°31.468 3°5.129 133.4 3.7 92 31.4
2010-09-09 12:48:43 51°31.467 3°5.229 127.9 3.8 90 31.6
2010-09-09 12:49:43 51°31.468 3°5.332 126.7 3.8 90 31.5
2010-09-09 12:50:43 51°31.467 3°5.434 129.8 3.8 91 31
2010-09-09 12:51:43 51°31.465 3°5.534 133.6 3.7 94 31
2010-09-09 12:52:43 51°31.46 3°5.629 148.1 3.3 99 30.6
2010-09-09 12:53:43 51°31.447 3°5.702 176.8 2.3 113 30.3
2010-09-09 12:54:43 51°31.423 3°5.723 223.7 2.1 221 29.9
2010-09-09 12:55:43 51°31.419 3°5.596 259.6 7.8 266 30.1
2010-09-09 12:56:43 51°31.407 3°5.331 259.6 11 267 31.2
2010-09-09 12:57:43 51°31.393 3°5.032 259.4 11.3 267 30.6
2010-09-09 12:58:43 51°31.381 3°4.733 259.8 11.1 267 30.7
2010-09-09 12:59:43 51°31.37 3°4.437 259.8 11.1 268 30.6
2010-09-09 13:00:43 51°31.362 3°4.14 261.4 11.2 270 30.8
2010-09-09 13:01:44 51°31.36 3°3.837 262.4 11.1 270 30.3
2010-09-09 13:02:43 51°31.358 3°3.543 262.5 11.2 269 30.9
2010-09-09 13:03:43 51°31.357 3°3.243 262.4 11.4 271 31.2
2010-09-09 13:04:43 51°31.357 3°2.942 262 11.2 269 31
2010-09-09 13:05:44 51°31.353 3°2.639 262.5 11.2 269 30.7
2010-09-09 13:06:43 51°31.349 3°2.347 262.4 11.1 268 30.6
2010-09-09 13:07:43 51°31.344 3°2.047 262.3 11.3 268 30.2
2010-09-09 13:08:43 51°31.337 3°1.746 261.8 11.4 267 30.3
2010-09-09 13:09:44 51°31.33 3°1.438 262.1 11.5 267 30.8
2010-09-09 13:10:44 51°31.323 3°1.134 263.1 11.3 267 30.2
2010-09-09 13:11:44 51°31.315 3°0.831 262.4 11.3 269 29.1
2010-09-09 13:12:44 51°31.308 3°0.528 262.6 11.4 269 28.5
2010-09-09 13:13:43 51°31.303 3°0.231 262.6 11.4 269 30
2010-09-09 13:14:43 51°31.299 2°59.927 261.7 11.4 270 30.1
2010-09-09 13:15:43 51°31.296 2°59.624 262.1 11.4 270 29.8
2010-09-09 13:16:44 51°31.294 2°59.316 262.2 11.3 269 29.8
2010-09-09 13:17:43 51°31.293 2°59.019 262.1 11.4 269 30.7
2010-09-09 13:18:43 51°31.292 2°58.716 262.3 11.4 269 30.8
2010-09-09 13:19:43 51°31.292 2°58.414 262.3 11.3 271 31.4
2010-09-09 13:20:43 51°31.291 2°58.115 262.6 11.2 270 32.4
2010-09-09 13:21:43 51°31.291 2°57.818 262.1 11.3 271 32.2
2010-09-09 13:22:43 51°31.291 2°57.524 262.5 10.9 268 33.6
2010-09-09 13:23:43 51°31.283 2°57.224 262.7 11.4 266 34.5
2010-09-09 13:24:43 51°31.275 2°56.922 262.9 11.3 267 34.4
2010-09-09 13:25:43 51°31.272 2°56.619 265.8 11.3 271 33.3
2010-09-09 13:26:43 51°31.278 2°56.314 266.5 11.7 274 28.5
2010-09-09 13:27:43 51°31.289 2°56.003 267.3 11.7 273 22.1
2010-09-09 13:28:43 51°31.305 2°55.688 267.8 11.9 273 20.8
2010-09-09 13:29:43 51°31.32 2°55.372 267.2 11.8 273 21.2
2010-09-09 13:30:44 51°31.335 2°55.05 266.9 12.1 275 20.4
2010-09-09 13:31:43 51°31.351 2°54.737 268.1 12 275 18.5
2010-09-09 13:32:43 51°31.366 2°54.419 267.7 11.9 273 22.1
2010-09-09 13:33:43 51°31.376 2°54.099 264.3 11.9 271 22.3
2010-09-09 13:34:44 51°31.379 2°53.775 263.9 11.9 270 20.7
2010-09-09 13:35:43 51°31.382 2°53.463 263.5 11.9 272 23.6
2010-09-09 13:36:43 51°31.385 2°53.144 263.9 11.9 271 20.2
2010-09-09 13:37:43 51°31.387 2°52.826 263.9 11.9 269 24.5
2010-09-09 13:38:43 51°31.389 2°52.507 264.2 12 275 22.7
2010-09-09 13:39:43 51°31.391 2°52.191 263.5 12 271 25.5
2010-09-09 13:40:43 51°31.395 2°51.872 264.6 11.9 270 25.9
2010-09-09 13:41:44 51°31.392 2°51.55 261.8 11.9 268 26.3
2010-09-09 13:42:43 51°31.385 2°51.237 262.8 12 270 27.9
2010-09-09 13:43:43 51°31.379 2°50.917 263 11.9 269 29.1
2010-09-09 13:44:43 51°31.372 2°50.601 262.3 11.9 267 27.1
2010-09-09 13:45:43 51°31.365 2°50.284 261.7 11.9 266 31.4
2010-09-09 13:46:43 51°31.357 2°49.969 262 11.9 268 31.4
2010-09-09 13:47:43 51°31.351 2°49.651 262.9 11.9 268 30.9
2010-09-09 13:48:43 51°31.346 2°49.337 262.1 11.7 269 29.8
2010-09-09 13:49:43 51°31.338 2°49.024 262.8 11.8 269 30.1
2010-09-09 13:50:43 51°31.332 2°48.709 262.9 11.8 269 31.9
2010-09-09 13:51:43 51°31.325 2°48.393 262.4 11.9 268 32.2
2010-09-09 13:52:44 51°31.316 2°48.072 262.2 12 266 31.6
2010-09-09 13:53:44 51°31.319 2°47.825 267.2 5.5 284 33.3
2010-09-09 13:54:44 51°31.363 2°47.771 318.2 2.6 7 32.1
2010-09-09 13:55:44 51°31.388 2°47.808 355.2 2 54 -999
2010-09-09 13:56:46 51°31.408 2°47.854 15.2 2.1 57 33.2
2010-09-09 13:57:44 51°31.427 2°47.9 26.3 2.1 57 31.8
2010-09-09 13:58:43 51°31.446 2°47.948 35.8 2.2 54 32.9
2010-09-09 13:59:44 51°31.467 2°47.998 37.8 2.3 57 34.2
2010-09-09 14:00:43 51°31.488 2°48.046 34 2.2 55 33.7
2010-09-09 14:01:43 51°31.51 2°48.094 25.4 2.3 53 30.5
2010-09-09 14:02:43 51°31.533 2°48.142 17.3 2.2 56 33.6
2010-09-09 14:03:43 51°31.554 2°48.19 7.8 2.2 56 33.4
2010-09-09 14:04:43 51°31.575 2°48.238 5.4 2.2 55 33.4
2010-09-09 14:05:43 51°31.596 2°48.285 5.9 2.1 52 33.4
2010-09-09 14:06:43 51°31.617 2°48.329 3.7 2.1 53 32
2010-09-09 14:07:43 51°31.636 2°48.376 0.9 2.2 59 33.6
2010-09-09 14:08:43 51°31.656 2°48.425 4.3 2.2 57 33.5
2010-09-09 14:09:43 51°31.676 2°48.472 14.2 2 54 34.1
2010-09-09 14:10:44 51°31.697 2°48.519 18.1 2.1 51 31.9
2010-09-09 14:11:43 51°31.718 2°48.564 18.3 2.2 55 34.2
2010-09-09 14:12:43 51°31.739 2°48.609 14.2 2.1 53 35
2010-09-09 14:13:43 51°31.76 2°48.653 8.9 2 53 35.4
2010-09-09 14:14:43 51°31.782 2°48.695 4.3 2 47 34.3
2010-09-09 14:15:44 51°31.804 2°48.741 3.1 2.2 51 30
2010-09-09 14:16:43 51°31.825 2°48.786 358.6 2.1 54 30.5
2010-09-09 14:17:44 51°31.847 2°48.833 358.5 2.2 53 30.1
2010-09-09 14:18:43 51°31.869 2°48.88 5.3 2.2 55 30
2010-09-09 14:19:44 51°31.891 2°48.928 10.2 2.2 54 32.6
2010-09-09 14:20:43 51°31.912 2°48.972 10.5 2.2 53 33.5
2010-09-09 14:21:43 51°31.934 2°49.017 7.8 2.1 52 34
2010-09-09 14:22:43 51°31.955 2°49.061 4.3 2.1 53 32.6
2010-09-09 14:23:43 51°31.977 2°49.105 2.3 2.1 52 34.4
2010-09-09 14:24:43 51°31.998 2°49.149 3.7 2.1 53 33.2
2010-09-09 14:25:43 51°32.019 2°49.194 7.7 2.1 53 32.2
2010-09-09 14:26:43 51°32.04 2°49.24 9.5 2.1 55 32.5
2010-09-09 14:27:43 51°32.061 2°49.282 9 2 53 33.4
2010-09-09 14:28:43 51°32.081 2°49.325 5.2 2.1 53 32.6
2010-09-09 14:29:43 51°32.111 2°49.367 348.8 3 22 33.1
2010-09-09 14:30:43 51°32.162 2°49.32 280.8 5.6 292 34.3
2010-09-09 14:31:43 51°32.123 2°49.151 228.6 9.2 231 34.3
2010-09-09 14:32:43 51°32.027 2°48.935 240.5 10.3 244 32.6
2010-09-09 14:33:43 51°31.947 2°48.684 239.4 10.8 242 32
2010-09-09 14:34:43 51°31.863 2°48.426 238.9 10.9 240 35.4
2010-09-09 14:35:43 51°31.772 2°48.171 236.8 11 240 32.4
2010-09-09 14:36:43 51°31.68 2°47.923 236.7 10.9 242 31.8
2010-09-09 14:37:43 51°31.587 2°47.673 237.1 10.9 240 32.7
2010-09-09 14:38:43 51°31.479 2°47.448 229.8 9.1 229 31.2
2010-09-09 14:39:43 51°31.359 2°47.427 188.4 6.1 174 31.4
2010-09-09 14:40:43 51°31.307 2°47.522 127.9 4.9 105 31.3
2010-09-09 14:41:43 51°31.305 2°47.66 106.8 5.3 90 31.3
2010-09-09 14:42:43 51°31.302 2°47.783 118.1 4 94 32.2
2010-09-09 14:43:43 51°31.3 2°47.876 122.8 3.3 88 30.9
2010-09-09 14:44:43 51°31.303 2°47.957 121.3 2.9 84 30.6
2010-09-09 14:45:43 51°31.308 2°48.037 117.7 3.2 84 32.2
2010-09-09 14:46:43 51°31.316 2°48.128 104.1 3.8 78 32.1
2010-09-09 14:47:43 51°31.329 2°48.229 103 3.8 82 31.7
2010-09-09 14:48:43 51°31.337 2°48.33 111.1 3.7 85 31.8
2010-09-09 14:49:43 51°31.339 2°48.428 118.3 3.6 90 31.8
2010-09-09 14:50:43 51°31.34 2°48.526 118.5 3.7 87 31.5
2010-09-09 14:51:43 51°31.341 2°48.621 119.2 3.5 90 30.2
2010-09-09 14:52:43 51°31.341 2°48.715 120.1 3.6 90 31.6
2010-09-09 14:53:43 51°31.342 2°48.812 117.4 3.7 89 32.3
2010-09-09 14:54:43 51°31.341 2°48.905 127.4 3 93 30.2
2010-09-09 14:55:43 51°31.343 2°48.974 134.2 2.3 85 28.9
2010-09-09 14:56:43 51°31.341 2°49.035 147.8 2.8 109 29.1
2010-09-09 14:57:43 51°31.262 2°49.126 162.3 8.5 155 28.9
2010-09-09 14:58:43 51°31.092 2°49.201 172.8 11.7 169 31.2
2010-09-09 14:59:43 51°30.897 2°49.266 171.6 12 169 27.7
2010-09-09 15:00:43 51°30.704 2°49.339 171.2 12.1 166 29.1
2010-09-09 15:01:43 51°30.51 2°49.412 171.7 11.8 169 26.8
2010-09-09 15:02:44 51°30.315 2°49.491 170.5 11.8 166 24.2
2010-09-09 15:03:43 51°30.127 2°49.569 171.1 11.7 167 22.7
2010-09-09 15:04:43 51°29.936 2°49.647 170.5 11.8 165 22.3
2010-09-09 15:05:43 51°29.743 2°49.73 170.6 12.2 164 25
2010-09-09 15:06:43 51°29.552 2°49.82 170.2 11.9 163 31.5
2010-09-09 15:07:43 51°29.362 2°49.911 170.5 11.8 165 32.6
2010-09-09 15:08:43 51°29.169 2°49.996 169.9 12 164 32.2
2010-09-09 15:09:43 51°28.976 2°50.082 169.9 12 166 28.8
2010-09-09 15:10:43 51°28.783 2°50.166 169.8 11.9 164 27.3
2010-09-09 15:11:43 51°28.587 2°50.248 170.4 12.2 166 27.4
2010-09-09 15:12:43 51°28.391 2°50.332 170.6 12.5 165 28.9
2010-09-09 15:13:43 51°28.194 2°50.415 170.5 12.1 164 28.5
2010-09-09 15:14:43 51°27.999 2°50.496 170.5 12.2 166 28.7
2010-09-09 15:15:43 51°27.805 2°50.577 171.4 12 168 26.6
2010-09-09 15:16:43 51°27.61 2°50.657 170.5 12.1 165 24.9
2010-09-09 15:17:43 51°27.415 2°50.735 170 12.1 166 22.9
2010-09-09 15:18:43 51°27.222 2°50.814 169.9 12 166 21.4
2010-09-09 15:19:43 51°27.028 2°50.892 170.5 11.9 166 20.3
2010-09-09 15:20:43 51°26.835 2°50.971 169.9 11.9 165 21.2
2010-09-09 15:21:43 51°26.642 2°51.053 170.2 12.1 165 25.3
2010-09-09 15:22:43 51°26.446 2°51.132 170.3 12.1 167 26.5
2010-09-09 15:23:43 51°26.25 2°51.211 169.9 12 168 24.8
2010-09-09 15:24:43 51°26.053 2°51.27 175 12 171 25
2010-09-09 15:25:43 51°25.855 2°51.316 176.2 12 172 24.5
2010-09-09 15:26:43 51°25.656 2°51.356 176.6 12 171 24.2
2010-09-09 15:27:43 51°25.457 2°51.393 176.9 12.1 172 24.1
2010-09-09 15:28:43 51°25.258 2°51.43 175.7 11.9 173 23.7
2010-09-09 15:29:43 51°25.062 2°51.472 176.5 11.9 173 23.9
2010-09-09 15:30:43 51°24.864 2°51.511 176.4 11.8 173 24.1
2010-09-09 15:31:43 51°24.667 2°51.548 176.2 12.1 173 23.1
2010-09-09 15:32:43 51°24.468 2°51.586 176.4 12 172 22.5
2010-09-09 15:33:43 51°24.269 2°51.62 176.2 11.9 172 21.4
2010-09-09 15:34:43 51°24.069 2°51.649 177.3 11.9 175 19.4
2010-09-09 15:35:43 51°23.869 2°51.668 178.3 11.9 176 19.4
2010-09-09 15:36:43 51°23.67 2°51.686 178.3 11.9 177 17.5
2010-09-09 15:37:43 51°23.473 2°51.705 178.3 11.9 176 14.7
2010-09-09 15:38:43 51°23.274 2°51.727 178.2 11.8 175 16.4
2010-09-09 15:39:43 51°23.075 2°51.75 178.6 12.2 176 24
2010-09-09 15:40:43 51°22.874 2°51.774 177.9 12.1 175 23.8
2010-09-09 15:41:43 51°22.672 2°51.799 177.8 12.4 175 24
2010-09-09 15:42:43 51°22.47 2°51.822 177.2 12.2 174 23.8
2010-09-09 15:43:43 51°22.271 2°51.844 178.8 12 177 24.4
2010-09-09 15:44:43 51°22.073 2°51.869 178.3 12.1 176 24.4
2010-09-09 15:45:43 51°21.872 2°51.889 178.3 12.1 175 24.8
2010-09-09 15:46:43 51°21.67 2°51.911 178.2 12 177 23.9
2010-09-09 15:47:43 51°21.467 2°51.93 177.6 12.4 177 22.3
2010-09-09 15:48:43 51°21.264 2°51.95 178.5 12.1 176 19.8
2010-09-09 15:49:43 51°21.06 2°51.969 178.5 12.3 176 17.6
2010-09-09 15:50:43 51°20.857 2°51.983 178.5 12.2 178 16.2
2010-09-09 15:51:43 51°20.651 2°51.995 178.1 12.3 178 14.8
2010-09-09 15:52:43 51°20.446 2°52.007 178.6 12.3 179 14
2010-09-09 15:53:43 51°20.241 2°52.018 178.7 12.4 178 15.7
2010-09-09 15:54:43 51°20.037 2°52.031 177.9 12.4 177 16.2
2010-09-09 15:55:44 51°19.828 2°52.058 176.5 12.4 175 16.8
2010-09-09 15:56:43 51°19.626 2°52.089 176.3 12.6 174 16.7
2010-09-09 15:57:43 51°19.42 2°52.118 176.9 12.2 177 16.2
2010-09-09 15:58:43 51°19.215 2°52.141 176.5 12.4 176 15.7
2010-09-09 15:59:43 51°19.01 2°52.163 175.9 12.3 175 14.6
2010-09-09 16:00:43 51°18.805 2°52.184 176.1 12.4 176 13.6
2010-09-09 16:01:43 51°18.601 2°52.206 175.5 12.1 176 12.5
2010-09-09 16:02:43 51°18.396 2°52.224 177 12.2 176 12.1
2010-09-09 16:03:43 51°18.191 2°52.242 176.2 12.4 176 11.9
2010-09-09 16:04:43 51°17.986 2°52.26 176.8 12.6 177 11.7
2010-09-09 16:05:43 51°17.782 2°52.278 176.4 12.1 175 11.1
2010-09-09 16:06:43 51°17.578 2°52.3 176.5 12.2 175 11.1
2010-09-09 16:07:43 51°17.374 2°52.321 176.5 12.3 177 11
2010-09-09 16:08:43 51°17.179 2°52.404 157.8 12.3 157 10.7
2010-09-09 16:09:43 51°16.997 2°52.56 151.7 12.6 151 10.2
2010-09-09 16:10:43 51°16.805 2°52.693 160 12.4 159 10.2
2010-09-09 16:11:43 51°16.61 2°52.817 158.5 12.6 156 11.9
2010-09-09 16:12:43 51°16.419 2°52.948 156.8 12.8 156 12.3
2010-09-09 16:13:43 51°16.23 2°53.099 152.9 12.6 151 12.3
2010-09-09 16:14:43 51°16.042 2°53.254 153 12.5 152 12.4
2010-09-09 16:15:43 51°15.858 2°53.418 147.4 12.5 145 12.2
2010-09-09 16:16:43 51°15.685 2°53.619 141.7 12.7 144 11.8
2010-09-09 16:17:43 51°15.517 2°53.829 141.6 12.9 141 11.4
2010-09-09 16:18:43 51°15.347 2°54.031 142.9 12.6 147 11
2010-09-09 16:19:43 51°15.175 2°54.234 142.1 13.1 141 10.7
2010-09-09 16:20:43 51°15.005 2°54.437 140.9 12.6 139 10.4
2010-09-09 16:21:43 51°14.839 2°54.646 143.8 12.5 145 11.2
2010-09-09 16:22:44 51°14.669 2°54.843 142 12.2 146 11.6
2010-09-09 16:23:43 51°14.501 2°55.027 143.1 12.7 147 11.2
2010-09-09 16:24:43 51°14.333 2°55.218 143.7 11.9 145 10.3
2010-09-09 16:25:43 51°14.173 2°55.37 151.6 10.4 154 10.9
2010-09-09 16:26:43 51°14.038 2°55.473 155 7.5 155 10.4
2010-09-09 16:27:43 51°13.929 2°55.552 155.3 6.9 155 11.2
2010-09-09 16:28:43 51°13.829 2°55.629 152.8 6.6 152 11.5
2010-09-09 16:29:43 51°13.75 2°55.731 131.8 5.5 134 10.1
2010-09-09 16:30:43 51°13.699 2°55.833 125.5 4.4 126 10.2
2010-09-09 16:31:43 51°13.669 2°55.932 111.7 3.6 111 5.5
2010-09-09 16:32:43 51°13.662 2°55.958 126.5 0.3 252 6.3